Time;durP1;ratioP1;P1;durP2;ratioP2;P2;SDS_P1;SDS_P2;PMS_P1;PMS_P2;Temp;Humidity;BMP_temperature;BMP_pressure;BME280_temperature;BME280_humidity;BME280_pressure;Samples;Min_cycle;Max_cycle;Signal;HPM_P1;HPM_P2
2022/12/23 00:00:37;;;;;;;23.87;16.57;;;;;;;0.13;82.62;96907.84;5089397;28;20575;-79
2022/12/23 00:03:04;;;;;;;26.10;16.67;;;;;;;0.06;84.10;96906.22;5089457;28;20675;-80
2022/12/23 00:05:35;;;;;;;27.60;17.30;;;;;;;-0.05;83.58;96909.69;5089282;28;20220;-79
2022/12/23 00:08:05;;;;;;;28.40;17.73;;;;;;;0.06;83.63;96922.34;5089936;28;20204;-80
2022/12/23 00:10:33;;;;;;;23.70;16.07;;;;;;;0.05;84.94;96919.78;5088608;28;20312;-82
2022/12/23 00:15:45;;;;;;;25.23;15.20;;;;;;;0.11;84.74;96915.50;5088995;28;20193;-81
2022/12/23 00:18:12;;;;;;;20.23;13.33;;;;;;;0.04;83.99;96907.94;5089362;28;20220;-80
2022/12/23 00:20:38;;;;;;;25.57;13.73;;;;;;;0.13;83.80;96918.03;5089379;28;20388;-80
2022/12/23 00:23:05;;;;;;;23.93;15.17;;;;;;;0.12;83.99;96917.22;5088972;28;20647;-81
2022/12/23 00:25:39;;;;;;;22.83;14.93;;;;;;;0.23;83.75;96906.97;5089242;28;20185;-83
2022/12/23 00:28:10;;;;;;;25.97;16.00;;;;;;;0.29;83.57;96914.53;5088339;28;20196;-79
2022/12/23 00:30:45;;;;;;;25.27;16.83;;;;;;;0.27;83.84;96917.09;5088932;28;20346;-79
2022/12/23 00:33:13;;;;;;;31.90;19.10;;;;;;;0.30;84.04;96913.66;5087694;28;20196;-78
2022/12/23 00:35:42;;;;;;;27.47;17.50;;;;;;;0.31;84.40;96913.66;5088478;28;20208;-77
2022/12/23 00:38:09;;;;;;;30.53;18.93;;;;;;;0.41;83.23;96922.09;5088843;28;20193;-82
2022/12/23 00:43:22;;;;;;;26.73;16.67;;;;;;;0.49;82.69;96898.25;5089160;28;20185;-80
2022/12/23 00:45:49;;;;;;;23.67;15.07;;;;;;;0.56;83.61;96896.47;5088245;28;20691;-81
2022/12/23 00:51:01;;;;;;;22.07;15.97;;;;;;;0.72;82.04;96896.28;5088563;28;20216;-80
2022/12/23 00:53:28;;;;;;;27.70;17.20;;;;;;;0.78;81.98;96891.13;5088437;28;20224;-81
2022/12/23 00:55:55;;;;;;;26.13;17.30;;;;;;;0.81;82.23;96886.03;5089003;28;20577;-80
2022/12/23 00:58:22;;;;;;;26.87;18.30;;;;;;;0.79;82.69;96892.00;5088217;28;20201;-79
2022/12/23 01:06:23;;;;;;;32.67;17.03;;;;;;;0.74;81.90;96889.47;5087982;28;20302;-81
2022/12/23 01:08:49;;;;;;;39.83;23.23;;;;;;;0.79;82.96;96885.19;5088504;28;20192;-76
2022/12/23 01:11:16;;;;;;;40.60;24.40;;;;;;;0.95;81.67;96885.88;5087743;28;20228;-78
2022/12/23 01:13:43;;;;;;;32.20;20.40;;;;;;;1.05;81.60;96884.91;5088686;28;20268;-79
2022/12/23 01:16:11;;;;;;;31.00;19.30;;;;;;;1.15;80.57;96883.09;5088271;28;20188;-85
2022/12/23 01:18:43;;;;;;;30.47;18.00;;;;;;;1.20;80.95;96873.69;5089539;28;20230;-78
2022/12/23 01:21:12;;;;;;;29.93;18.90;;;;;;;1.27;79.73;96878.72;5071679;28;20196;-77
2022/12/23 01:23:39;;;;;;;31.20;18.00;;;;;;;1.28;79.58;96872.72;5087813;28;20197;-75
2022/12/23 01:26:07;;;;;;;31.80;19.30;;;;;;;1.21;80.18;96867.72;5088732;28;20212;-80
2022/12/23 01:28:35;;;;;;;30.73;19.23;;;;;;;0.95;80.63;96862.91;5087320;28;20199;-77
2022/12/23 01:31:04;;;;;;;35.27;20.70;;;;;;;0.77;81.25;96848.69;5087975;28;20231;-78
2022/12/23 01:33:32;;;;;;;35.00;20.03;;;;;;;0.79;80.18;96861.41;5087636;28;20204;-76
2022/12/23 01:36:00;;;;;;;34.33;20.47;;;;;;;0.66;80.46;96854.78;5087668;28;20589;-76
2022/12/23 01:38:28;;;;;;;31.03;17.83;;;;;;;0.66;80.97;96859.88;5087627;28;20676;-77
2022/12/23 01:40:56;;;;;;;30.00;18.17;;;;;;;0.67;79.91;96848.81;5087079;28;20228;-76
2022/12/23 01:43:23;;;;;;;30.03;17.73;;;;;;;0.70;79.65;96856.44;5087824;28;20193;-82
2022/12/23 01:45:50;;;;;;;26.33;14.93;;;;;;;0.51;80.76;96852.38;5086382;28;20676;-78
2022/12/23 01:48:36;;;;;;;26.40;15.83;;;;;;;0.34;81.04;96859.31;5088796;28;20200;-80
2022/12/23 01:51:10;;;;;;;28.53;15.93;;;;;;;0.21;81.93;96852.63;5087059;28;20235;-80
2022/12/23 01:53:41;;;;;;;23.63;14.70;;;;;;;0.29;81.47;96856.81;5087087;28;20184;-78
2022/12/23 01:56:18;;;;;;;23.30;15.00;;;;;;;0.25;81.21;96856.88;5087680;28;20232;-77
2022/12/23 02:03:40;;;;;;;20.70;13.33;;;;;;;0.29;81.33;96854.25;5086793;28;20194;-75
2022/12/23 02:04:44;;;;;;;21.40;13.20;;;;;;;0.38;81.83;96849.09;5087400;28;20195;-78
2022/12/23 02:09:58;;;;;;;25.23;15.20;;;;;;;0.17;82.18;96848.41;5088403;28;20677;-79
2022/12/23 02:12:36;;;;;;;27.30;16.50;;;;;;;-0.09;81.67;96826.59;5068985;28;20651;-80
2022/12/23 02:18:47;;;;;;;28.67;16.87;;;;;;;-0.11;83.34;96848.66;5087504;28;20188;-82
2022/12/23 02:21:31;;;;;;;30.40;15.63;;;;;;;-0.16;83.50;96829.19;5086522;28;20192;-79
2022/12/23 02:24:27;;;;;;;23.43;14.50;;;;;;;-0.05;83.46;96840.13;5086527;28;20203;-80
2022/12/23 02:27:27;;;;;;;30.10;16.13;;;;;;;-0.09;84.74;96836.78;5074224;28;20226;-79
2022/12/23 02:29:54;;;;;;;26.87;16.03;;;;;;;-0.39;84.76;96781.03;5067876;28;20236;-82
2022/12/23 02:32:33;;;;;;;24.17;14.93;;;;;;;-0.07;84.46;96834.22;5086826;28;20184;-81
2022/12/23 02:35:25;;;;;;;22.63;15.03;;;;;;;-0.07;83.92;96846.94;5086578;28;20242;-78
2022/12/23 02:38:03;;;;;;;22.20;13.57;;;;;;;-0.03;84.21;96844.38;5086058;28;20253;-82
2022/12/23 02:41:14;;;;;;;25.40;14.40;;;;;;;-0.04;83.61;96827.38;5086859;28;20306;-81
2022/12/23 02:43:55;;;;;;;21.03;14.10;;;;;;;0.07;84.74;96831.53;5044086;28;20192;-79
2022/12/23 02:46:35;;;;;;;22.77;14.97;;;;;;;0.11;84.04;96823.03;5085985;28;20192;-82
2022/12/23 02:49:14;;;;;;;21.23;12.63;;;;;;;0.16;83.24;96828.94;5086734;28;20199;-78
2022/12/23 02:51:47;;;;;;;19.50;12.13;;;;;;;0.13;83.96;96823.84;5086153;28;20312;-79
2022/12/23 02:54:21;;;;;;;20.90;13.33;;;;;;;0.07;83.44;96822.22;5086450;28;20215;-79
2022/12/23 02:56:51;;;;;;;21.23;12.53;;;;;;;0.20;83.89;96828.91;5087037;28;20204;-80
2022/12/23 02:59:25;;;;;;;18.20;12.43;;;;;;;0.31;84.09;96827.06;5090072;28;20275;-79
2022/12/23 03:01:53;;;;;;;22.50;13.17;;;;;;;0.36;83.87;96835.53;5091206;28;20195;-79
2022/12/23 03:04:20;;;;;;;21.27;13.80;;;;;;;0.34;83.09;96821.13;5090198;28;20188;-81
2022/12/23 03:06:51;;;;;;;18.90;13.30;;;;;;;0.46;83.60;96828.63;5090374;28;20200;-79
2022/12/23 03:09:35;;;;;;;21.53;14.37;;;;;;;0.53;82.83;96835.38;5090419;28;20207;-79
2022/12/23 03:12:21;;;;;;;18.93;12.93;;;;;;;0.60;82.63;96829.34;5090311;28;20255;-81
2022/12/23 03:15:10;;;;;;;20.73;14.03;;;;;;;0.67;82.71;96813.13;5090905;28;20223;-80
2022/12/23 03:18:03;;;;;;;24.97;13.93;;;;;;;0.76;81.85;96818.97;5090035;28;20299;-82
2022/12/23 03:20:37;;;;;;;17.60;12.67;;;;;;;0.87;80.85;96815.47;5090139;28;20766;-81
2022/12/23 03:23:17;;;;;;;19.30;13.10;;;;;;;0.91;80.93;96800.09;5090604;28;20655;-82
2022/12/23 03:25:56;;;;;;;17.37;13.53;;;;;;;1.12;81.42;96809.19;5089686;28;20667;-81
2022/12/23 03:28:39;;;;;;;21.03;14.23;;;;;;;1.30;80.97;96808.97;5090155;28;20208;-82
2022/12/23 03:31:10;;;;;;;20.40;13.23;;;;;;;1.23;80.23;96795.44;5089668;28;20228;-80
2022/12/23 03:33:41;;;;;;;23.23;14.53;;;;;;;1.30;79.92;96791.94;5089573;28;20817;-79
2022/12/23 03:36:18;;;;;;;24.10;14.33;;;;;;;1.38;79.82;96787.56;5090348;28;20214;-82
2022/12/23 03:38:48;;;;;;;23.47;14.20;;;;;;;1.32;79.29;96777.44;5090085;28;20278;-83
2022/12/23 03:41:29;;;;;;;26.53;16.13;;;;;;;1.43;78.98;96788.34;5090803;28;20231;-75
2022/12/23 03:44:07;;;;;;;29.27;17.67;;;;;;;1.37;79.53;96783.34;5089741;28;20304;-75
2022/12/23 03:46:49;;;;;;;30.90;17.87;;;;;;;1.25;79.58;96780.13;5089296;28;20635;-76
2022/12/23 03:49:22;;;;;;;34.50;20.80;;;;;;;1.35;79.93;96794.44;5090151;28;20188;-75
2022/12/23 03:51:59;;;;;;;26.17;17.73;;;;;;;1.30;80.23;96797.03;5089321;28;20679;-76
2022/12/23 03:54:33;;;;;;;30.20;17.90;;;;;;;1.30;79.98;96789.38;5090062;28;20189;-75
2022/12/23 03:57:04;;;;;;;31.03;18.07;;;;;;;1.29;80.51;96799.63;5089315;28;20268;-75
2022/12/23 03:59:35;;;;;;;26.50;17.33;;;;;;;1.27;80.98;96786.03;5090285;28;20192;-75
2022/12/23 04:02:04;;;;;;;28.17;18.47;;;;;;;1.27;80.43;96797.09;5089811;28;20254;-76
2022/12/23 04:05:25;;;;;;;24.23;17.27;;;;;;;1.11;81.02;96812.63;5088887;28;20192;-77
2022/12/23 04:08:05;;;;;;;29.57;17.60;;;;;;;0.93;81.70;96795.00;4987074;28;20287;-76
2022/12/23 04:10:33;;;;;;;23.63;15.73;;;;;;;1.00;81.05;96800.00;5078908;28;20224;-79
2022/12/23 04:13:00;;;;;;;27.77;17.03;;;;;;;0.94;81.96;96786.47;5089070;28;20222;-77
2022/12/23 04:15:28;;;;;;;26.13;14.90;;;;;;;0.82;82.55;96811.25;5089692;28;20656;-76
2022/12/23 04:17:56;;;;;;;25.80;15.30;;;;;;;0.81;82.21;96813.81;5088530;28;20752;-75
2022/12/23 04:21:02;;;;;;;24.20;14.37;;;;;;;0.77;82.75;96815.56;5089118;28;20191;-77
2022/12/23 04:23:43;;;;;;;26.10;15.10;;;;;;;0.75;82.75;96799.44;5088783;28;20184;-78
2022/12/23 04:26:11;;;;;;;22.63;14.80;;;;;;;0.82;81.84;96800.22;5088416;28;20180;-79
2022/12/23 04:28:38;;;;;;;30.70;17.10;;;;;;;0.74;82.95;96805.41;5089200;28;20275;-77
2022/12/23 04:31:05;;;;;;;36.33;18.93;;;;;;;0.79;83.13;96811.28;5088455;28;20225;-77
2022/12/23 04:33:32;;;;;;;29.30;17.27;;;;;;;0.70;82.11;96800.38;5088903;28;20236;-76
2022/12/23 04:35:59;;;;;;;26.53;16.33;;;;;;;0.86;82.98;96809.53;5090099;28;20298;-80
2022/12/23 04:38:26;;;;;;;25.90;15.80;;;;;;;0.85;81.50;96810.38;5088412;28;20192;-76
2022/12/23 04:40:53;;;;;;;21.27;13.47;;;;;;;0.73;81.46;96808.81;5089162;28;20319;-76
2022/12/23 04:43:20;;;;;;;19.43;12.30;;;;;;;0.72;82.18;96802.03;5088430;28;20222;-79
2022/12/23 04:45:50;;;;;;;20.53;12.63;;;;;;;0.61;82.31;96796.22;5089234;28;20196;-81
2022/12/23 04:48:18;;;;;;;24.10;13.13;;;;;;;0.69;81.78;96796.97;5088130;28;20196;-78
2022/12/23 04:50:45;;;;;;;20.83;12.83;;;;;;;0.57;81.97;96806.44;5070761;28;20299;-81
2022/12/23 04:53:12;;;;;;;23.07;12.67;;;;;;;0.60;83.13;96808.94;5088648;28;20205;-76
2022/12/23 04:55:39;;;;;;;20.87;12.53;;;;;;;0.62;82.89;96815.72;5088614;28;20262;-78
2022/12/23 04:58:05;;;;;;;33.43;14.00;;;;;;;0.63;83.02;96808.94;5088664;28;20580;-83
2022/12/23 05:00:32;;;;;;;22.40;12.33;;;;;;;0.56;83.23;96803.06;5087899;28;20607;-85
2022/12/23 05:03:05;;;;;;;22.23;14.23;;;;;;;0.65;82.86;96817.41;5088994;28;20209;-77
2022/12/23 05:05:32;;;;;;;29.03;15.50;;;;;;;0.64;82.35;96805.50;5081019;28;20200;-81
2022/12/23 05:08:07;;;;;;;30.87;18.80;;;;;;;0.54;82.58;96801.38;5070084;28;20247;-79
2022/12/23 05:10:35;;;;;;;29.17;17.23;;;;;;;0.51;82.92;96803.97;5067662;28;20235;-82
2022/12/23 05:13:04;;;;;;;24.53;16.30;;;;;;;0.53;82.85;96808.19;5068108;28;20272;-83
2022/12/23 05:15:31;;;;;;;23.97;15.43;;;;;;;0.53;82.43;96812.44;5067794;28;20203;-79
2022/12/23 05:17:58;;;;;;;25.47;17.33;;;;;;;0.56;83.06;96814.94;5067433;28;20279;-78
2022/12/23 05:20:25;;;;;;;23.90;16.90;;;;;;;0.54;82.67;96820.06;5067464;28;20193;-76
2022/12/23 05:22:52;;;;;;;26.97;17.30;;;;;;;0.54;82.37;96822.59;5078852;28;20209;-78
2022/12/23 05:25:19;;;;;;;25.67;16.43;;;;;;;0.56;82.22;96815.78;5081254;28;20295;-78
2022/12/23 05:27:46;;;;;;;25.70;17.80;;;;;;;0.52;82.03;96805.66;5087723;28;20200;-83
2022/12/23 05:30:13;;;;;;;26.37;16.83;;;;;;;0.64;83.31;96819.09;5090256;28;20275;-80
2022/12/23 05:32:40;;;;;;;26.10;17.20;;;;;;;0.64;83.37;96818.25;5077629;28;20320;-76
2022/12/23 05:35:07;;;;;;;25.23;16.37;;;;;;;0.70;82.01;96810.56;5067056;28;20195;-78
2022/12/23 05:37:34;;;;;;;23.63;14.37;;;;;;;0.70;81.93;96815.66;5067680;28;20201;-80
2022/12/23 05:40:01;;;;;;;19.90;14.10;;;;;;;0.83;81.88;96812.09;5066905;28;20618;-82
2022/12/23 05:42:29;;;;;;;19.60;13.07;;;;;;;0.86;81.56;96809.53;5067863;28;20208;-77
2022/12/23 05:44:56;;;;;;;19.23;13.03;;;;;;;0.85;82.22;96807.81;5066943;28;20234;-80
2022/12/23 05:47:23;;;;;;;20.93;13.93;;;;;;;0.96;81.80;96813.66;5067274;28;20204;-76
2022/12/23 05:49:50;;;;;;;23.23;15.07;;;;;;;0.95;81.64;96826.41;5066971;28;20291;-78
2022/12/23 05:52:17;;;;;;;43.37;16.90;;;;;;;0.99;81.71;96826.34;5066818;28;20233;-78
2022/12/23 05:54:44;;;;;;;38.23;19.10;;;;;;;1.13;82.37;96832.13;5067064;28;20185;-75
2022/12/23 05:57:10;;;;;;;37.67;20.97;;;;;;;1.18;81.33;96829.50;5066108;28;20220;-77
2022/12/23 05:59:37;;;;;;;35.73;22.70;;;;;;;1.22;80.97;96832.00;5067305;28;20645;-75
2022/12/23 06:02:04;;;;;;;32.93;19.87;;;;;;;1.33;81.19;96830.16;5066456;28;20196;-79
2022/12/23 06:04:31;;;;;;;38.67;20.67;;;;;;;1.34;80.10;96836.13;5049179;28;20223;-77
2022/12/23 06:06:58;;;;;;;33.67;20.93;;;;;;;1.47;80.67;96833.38;5066784;28;20181;-75
2022/12/23 06:09:25;;;;;;;38.37;19.00;;;;;;;1.37;80.74;96834.38;5066990;28;20184;-78
2022/12/23 06:11:52;;;;;;;29.80;18.47;;;;;;;1.40;80.42;96841.13;5066830;28;20594;-76
2022/12/23 06:14:19;;;;;;;48.33;26.37;;;;;;;1.46;79.71;96838.50;5066402;28;20200;-77
2022/12/23 06:16:54;;;;;;;40.20;22.87;;;;;;;1.20;80.04;96837.97;5066931;28;20199;-76
2022/12/23 06:19:21;;;;;;;46.83;25.33;;;;;;;1.18;79.99;96845.66;5066098;28;20550;-82
2022/12/23 06:21:48;;;;;;;40.17;22.80;;;;;;;1.19;80.84;96839.72;5066929;28;20201;-77
2022/12/23 06:24:14;;;;;;;41.87;24.90;;;;;;;1.18;80.04;96844.81;5067897;28;20579;-81
2022/12/23 06:26:41;;;;;;;32.97;21.17;;;;;;;1.07;80.58;96829.63;5066649;28;20631;-79
2022/12/23 06:29:09;;;;;;;29.87;19.43;;;;;;;1.18;81.32;96844.81;5067088;28;20250;-75
2022/12/23 06:31:36;;;;;;;40.57;22.83;;;;;;;1.34;80.65;96857.34;5066263;28;20235;-80
2022/12/23 06:34:03;;;;;;;31.83;21.13;;;;;;;1.33;80.90;96842.06;5067231;28;20201;-76
2022/12/23 06:36:30;;;;;;;34.30;22.43;;;;;;;1.23;81.46;96851.56;5065696;28;20197;-75
2022/12/23 06:38:57;;;;;;;30.63;18.37;;;;;;;1.21;81.08;96830.34;5048558;28;20188;-79
2022/12/23 06:41:24;;;;;;;27.97;18.03;;;;;;;1.21;81.16;96848.19;5066739;28;20377;-76
2022/12/23 06:43:51;;;;;;;31.67;19.47;;;;;;;1.04;82.48;96842.44;5066888;28;20201;-75
2022/12/23 06:46:20;;;;;;;35.13;22.77;;;;;;;1.16;82.38;96831.22;5066367;28;20637;-76
2022/12/23 06:48:47;;;;;;;32.57;19.23;;;;;;;1.17;82.07;96841.44;5066250;28;20189;-76
2022/12/23 06:51:14;;;;;;;36.60;21.70;;;;;;;1.25;81.77;96841.31;5066351;28;20236;-75
2022/12/23 06:53:41;;;;;;;32.27;19.07;;;;;;;1.25;81.56;96837.06;5065522;28;20230;-81
2022/12/23 06:56:08;;;;;;;25.40;16.03;;;;;;;1.07;81.80;96816.88;5048199;28;20197;-80
2022/12/23 06:58:35;;;;;;;25.60;15.10;;;;;;;1.10;82.62;96824.50;5065616;28;20201;-77
2022/12/23 07:01:01;;;;;;;31.77;18.80;;;;;;;1.06;82.75;96830.50;5066120;28;20189;-80
2022/12/23 07:03:29;;;;;;;24.03;16.37;;;;;;;1.18;83.84;96830.34;5066340;28;20202;-79
2022/12/23 07:05:56;;;;;;;31.33;18.07;;;;;;;1.34;83.06;96831.84;5065738;28;20201;-76
2022/12/23 07:08:23;;;;;;;43.37;22.73;;;;;;;1.32;82.42;96842.94;5066040;28;20231;-75
2022/12/23 07:10:57;;;;;;;41.30;26.83;;;;;;;1.20;82.72;96843.06;5065335;28;20531;-80
2022/12/23 07:13:24;;;;;;;41.50;24.70;;;;;;;1.21;82.23;96843.09;5066681;28;20739;-77
2022/12/23 07:15:51;;;;;;;45.53;24.37;;;;;;;1.44;81.76;96843.59;5065360;28;20193;-79
2022/12/23 07:18:20;;;;;;;32.60;20.17;;;;;;;1.24;81.95;96832.81;5048242;28;20284;-78
2022/12/23 07:20:48;;;;;;;33.93;20.37;;;;;;;1.33;81.97;96850.56;5067260;28;20177;-77
2022/12/23 07:23:15;;;;;;;31.83;19.07;;;;;;;1.32;81.81;96853.97;5066333;28;20189;-79
2022/12/23 07:25:42;;;;;;;26.70;18.30;;;;;;;1.26;81.74;96851.50;5066258;28;20299;-79
2022/12/23 07:28:09;;;;;;;31.67;17.30;;;;;;;1.36;80.93;96844.59;5065533;28;20189;-76
2022/12/23 07:30:36;;;;;;;23.20;14.93;;;;;;;1.48;80.51;96854.63;5048484;28;20193;-76
2022/12/23 07:33:03;;;;;;;25.60;14.97;;;;;;;1.64;80.10;96851.84;5065322;28;20232;-76
2022/12/23 07:35:30;;;;;;;22.47;14.07;;;;;;;1.70;80.14;96857.72;5065863;28;20768;-75
2022/12/23 07:37:57;;;;;;;22.13;13.73;;;;;;;1.82;79.80;96857.53;5047642;28;20200;-77
2022/12/23 07:40:25;;;;;;;30.47;18.23;;;;;;;1.82;79.94;96860.94;5066319;28;20290;-75
2022/12/23 07:42:57;;;;;;;21.73;14.77;;;;;;;1.95;78.50;96874.38;5067063;28;20256;-79
2022/12/23 07:45:26;;;;;;;22.73;14.43;;;;;;;2.22;77.85;96864.59;5051666;28;20217;-78
2022/12/23 07:47:54;;;;;;;19.90;12.37;;;;;;;2.20;77.46;96861.22;5069389;28;20644;-76
2022/12/23 07:50:21;;;;;;;17.70;11.93;;;;;;;2.24;76.54;96862.00;5075331;28;20295;-80
2022/12/23 07:52:48;;;;;;;21.17;11.83;;;;;;;2.24;76.92;96854.34;5071033;28;20228;-79
2022/12/23 07:55:15;;;;;;;14.73;10.50;;;;;;;2.20;77.03;96840.78;5073086;28;20698;-82
2022/12/23 07:57:42;;;;;;;16.30;10.90;;;;;;;2.40;76.95;96860.88;5077378;28;20220;-79
2022/12/23 08:00:11;;;;;;;17.60;11.13;;;;;;;2.52;76.56;96870.88;5079262;28;20207;-78
2022/12/23 08:02:38;;;;;;;15.03;9.63;;;;;;;2.60;75.84;96871.59;5082589;28;20262;-77
2022/12/23 08:05:06;;;;;;;16.60;9.60;;;;;;;2.62;75.42;96861.34;5082428;28;20270;-79
2022/12/23 08:07:34;;;;;;;15.00;9.80;;;;;;;2.71;76.33;96872.25;5090743;28;20212;-77
2022/12/23 08:10:01;;;;;;;13.93;9.00;;;;;;;2.81;76.51;96865.25;5090264;28;20292;-79
2022/12/23 08:12:29;;;;;;;16.30;9.53;;;;;;;2.92;74.83;96858.22;5088198;28;20695;-79
2022/12/23 08:14:56;;;;;;;16.33;8.90;;;;;;;3.08;74.81;96877.53;5085336;28;20198;-81
2022/12/23 08:17:27;;;;;;;14.90;9.37;;;;;;;3.13;74.16;96865.50;5090738;28;20188;-82
2022/12/23 08:19:55;;;;;;;14.10;9.03;;;;;;;3.17;74.27;96870.50;5088889;28;20196;-79
2022/12/23 08:22:23;;;;;;;14.10;9.37;;;;;;;3.13;74.70;96860.38;5089547;28;20196;-80
2022/12/23 08:24:51;;;;;;;16.73;11.07;;;;;;;3.35;74.45;96866.75;5087989;28;20224;-84
2022/12/23 08:27:18;;;;;;;17.73;10.67;;;;;;;3.49;74.70;96857.06;5080364;28;20209;-79
2022/12/23 08:29:45;;;;;;;16.83;11.33;;;;;;;3.28;75.18;96830.19;5081152;28;20247;-84
2022/12/23 08:32:12;;;;;;;16.43;9.83;;;;;;;3.52;74.50;96851.88;5088634;28;20236;-79
2022/12/23 08:34:39;;;;;;;14.47;9.77;;;;;;;3.15;75.12;96813.41;5087952;28;20625;-80
2022/12/23 08:37:06;;;;;;;20.27;11.20;;;;;;;3.52;75.47;96843.38;5088074;28;20223;-78
2022/12/23 08:39:33;;;;;;;20.13;11.93;;;;;;;3.49;74.67;96822.94;5088433;28;20273;-82
2022/12/23 08:42:02;;;;;;;14.53;10.30;;;;;;;3.68;75.56;96839.59;5087574;28;20233;-80
2022/12/23 08:44:31;;;;;;;30.03;11.67;;;;;;;3.91;74.66;96853.56;5077202;28;20271;-82
2022/12/23 08:46:59;;;;;;;17.70;12.17;;;;;;;4.03;73.51;96831.94;5075979;28;20194;-82
2022/12/23 08:49:29;;;;;;;23.20;15.10;;;;;;;4.29;72.72;96842.41;5070432;28;20206;-80
2022/12/23 08:51:57;;;;;;;26.30;15.57;;;;;;;4.45;71.47;96835.19;5087630;28;20225;-78
2022/12/23 08:54:24;;;;;;;26.50;15.70;;;;;;;4.59;71.27;96821.16;5086530;28;20272;-80
2022/12/23 08:57:12;;;;;;;25.83;14.70;;;;;;;4.85;70.03;96831.56;5087998;28;20527;-77
2022/12/23 08:59:39;;;;;;;19.63;12.60;;;;;;;5.04;68.93;96825.91;5086923;28;20194;-81
2022/12/23 09:02:09;;;;;;;15.40;11.47;;;;;;;5.16;67.99;96820.44;5087780;28;20555;-79
2022/12/23 09:04:36;;;;;;;20.50;10.83;;;;;;;5.26;66.72;96830.41;5087001;28;20278;-80
2022/12/23 09:07:03;;;;;;;21.50;12.63;;;;;;;5.42;66.71;96823.94;5088076;28;20202;-80
2022/12/23 09:09:30;;;;;;;24.10;12.60;;;;;;;5.55;65.48;96816.72;5087717;28;20224;-81
2022/12/23 09:11:57;;;;;;;27.37;14.47;;;;;;;5.44;64.27;96795.66;5089678;28;20614;-80
2022/12/23 09:14:24;;;;;;;21.43;12.77;;;;;;;5.54;62.62;96821.00;5087545;28;20227;-80
2022/12/23 09:16:51;;;;;;;22.23;12.17;;;;;;;5.51;63.09;96815.13;5087222;28;20202;-81
2022/12/23 09:19:18;;;;;;;19.10;12.90;;;;;;;5.68;62.78;96815.47;5087508;28;20192;-80
2022/12/23 09:21:45;;;;;;;23.53;12.60;;;;;;;5.83;62.31;96815.03;5086173;28;20865;-78
2022/12/23 09:24:12;;;;;;;20.10;13.57;;;;;;;5.90;62.19;96813.97;5087868;28;20200;-77
2022/12/23 09:26:39;;;;;;;21.10;13.57;;;;;;;5.77;61.25;96800.59;5087178;28;20668;-77
2022/12/23 09:29:06;;;;;;;20.50;13.40;;;;;;;5.86;62.34;96799.53;5087729;28;20190;-76
2022/12/23 09:31:33;;;;;;;20.33;14.07;;;;;;;5.93;61.72;96801.03;5068259;28;20710;-81
2022/12/23 09:34:04;;;;;;;20.20;13.80;;;;;;;5.94;61.25;96796.69;5086922;28;20184;-76
2022/12/23 09:36:31;;;;;;;25.83;14.47;;;;;;;6.04;61.71;96801.50;5087072;28;20189;-79
2022/12/23 09:38:58;;;;;;;19.23;13.77;;;;;;;6.14;61.23;96800.31;5085959;28;20197;-75
2022/12/23 09:41:47;;;;;;;22.27;13.77;;;;;;;6.33;59.77;96791.13;5086655;28;20246;-78
2022/12/23 09:44:36;;;;;;;23.70;15.07;;;;;;;6.37;60.73;96792.69;5086614;28;20196;-77
2022/12/23 09:47:06;;;;;;;21.93;14.73;;;;;;;6.41;60.34;96796.00;5086493;28;20196;-76
2022/12/23 09:49:37;;;;;;;25.10;14.57;;;;;;;6.62;60.50;96792.72;5086845;28;20259;-77
2022/12/23 09:52:09;;;;;;;23.53;14.67;;;;;;;6.76;59.19;96797.41;5085738;28;20222;-76
2022/12/23 09:54:55;;;;;;;23.23;14.70;;;;;;;6.63;58.88;96765.25;5086826;28;20203;-76
2022/12/23 09:57:27;;;;;;;19.43;13.33;;;;;;;6.76;58.08;96792.25;5086466;28;20750;-77
2022/12/23 10:00:05;;;;;;;25.03;14.40;;;;;;;6.87;57.99;96767.81;5082695;28;20626;-77
2022/12/23 10:02:47;;;;;;;22.07;14.03;;;;;;;7.09;57.68;96788.50;5047659;28;20700;-80
2022/12/23 10:05:30;;;;;;;23.63;15.33;;;;;;;7.04;58.62;96790.38;5066195;28;20197;-80
2022/12/23 10:08:09;;;;;;;22.87;14.10;;;;;;;7.17;58.65;96787.28;5069624;28;20203;-80
2022/12/23 10:11:09;;;;;;;20.60;13.63;;;;;;;7.27;57.71;96783.47;5067036;28;20238;-82
2022/12/23 10:13:36;;;;;;;25.27;15.30;;;;;;;7.27;57.73;96770.59;5066781;28;20663;-80
2022/12/23 10:16:08;;;;;;;18.73;12.63;;;;;;;7.39;56.62;96779.63;5066562;28;20700;-80
2022/12/23 10:18:41;;;;;;;22.37;13.43;;;;;;;7.22;57.64;96780.25;5067539;28;20189;-78
2022/12/23 10:21:31;;;;;;;18.20;13.20;;;;;;;7.45;57.69;96775.97;5069419;28;20196;-77
2022/12/23 10:24:06;;;;;;;18.33;11.57;;;;;;;7.28;56.79;96762.00;5015910;28;20745;-81
2022/12/23 10:26:47;;;;;;;31.47;17.70;;;;;;;7.31;57.01;96730.16;5048183;28;20193;-78
2022/12/23 10:29:14;;;;;;;25.80;15.77;;;;;;;7.72;57.32;96765.47;5049649;28;20675;-84
2022/12/23 10:32:17;;;;;;;19.53;12.20;;;;;;;7.97;56.75;96771.34;5066312;28;20198;-81
2022/12/23 10:35:00;;;;;;;15.23;12.13;;;;;;;7.93;56.36;96754.28;5067961;28;20231;-77
2022/12/23 10:37:31;;;;;;;20.13;12.17;;;;;;;7.93;56.14;96759.44;5073556;28;20235;-81
2022/12/23 10:40:21;;;;;;;20.47;13.23;;;;;;;7.97;56.03;96758.44;5067604;28;20185;-79
2022/12/23 10:43:07;;;;;;;21.10;10.97;;;;;;;8.07;56.34;96769.22;5067637;28;20236;-78
2022/12/23 10:46:02;;;;;;;16.87;10.77;;;;;;;8.12;56.05;96765.53;5066909;28;20288;-79
2022/12/23 10:48:40;;;;;;;35.40;16.77;;;;;;;8.06;56.37;96760.63;5048843;28;20247;-80
2022/12/23 10:51:34;;;;;;;23.37;13.30;;;;;;;8.16;56.63;96756.78;5067960;28;20231;-81
2022/12/23 10:54:10;;;;;;;17.10;10.87;;;;;;;8.08;55.67;96716.72;5066388;28;20227;-78
2022/12/23 10:56:37;;;;;;;13.83;9.70;;;;;;;8.44;55.20;96746.22;5067587;28;20193;-79
2022/12/23 10:59:06;;;;;;;14.63;9.13;;;;;;;8.46;55.87;96743.56;5049604;28;20225;-81
2022/12/23 11:01:33;;;;;;;9.93;7.00;;;;;;;8.56;54.67;96735.38;5067758;28;20192;-82
2022/12/23 11:04:12;;;;;;;15.13;9.07;;;;;;;8.74;55.47;96744.88;5068940;28;20177;-78
2022/12/23 11:06:58;;;;;;;12.13;7.93;;;;;;;8.71;55.06;96749.34;5072999;28;20205;-80
2022/12/23 11:09:56;;;;;;;15.53;7.70;;;;;;;8.82;55.08;96744.56;5079515;28;20599;-83
2022/12/23 11:12:43;;;;;;;10.93;8.80;;;;;;;8.92;53.76;96733.75;5078331;28;20230;-83
2022/12/23 11:15:40;;;;;;;11.33;8.03;;;;;;;9.01;53.14;96733.34;5082049;28;20200;-83
2022/12/23 11:18:12;;;;;;;9.03;6.87;;;;;;;9.06;52.69;96732.31;5088071;28;20314;-82
2022/12/23 11:21:41;;;;;;;10.73;7.93;;;;;;;9.09;53.11;96734.78;5070598;28;20197;-79
2022/12/23 11:24:33;;;;;;;15.30;8.57;;;;;;;9.23;52.01;96733.25;5075460;28;20193;-84
2022/12/23 11:27:13;;;;;;;15.63;9.40;;;;;;;9.28;52.05;96726.09;5071997;28;20412;-80
2022/12/23 11:29:46;;;;;;;11.30;8.00;;;;;;;9.40;51.13;96724.69;5071109;28;20271;-82
2022/12/23 11:32:25;;;;;;;11.50;8.50;;;;;;;9.48;50.78;96731.19;5089187;28;20612;-84
2022/12/23 11:34:54;;;;;;;14.40;8.07;;;;;;;9.48;50.81;96718.28;5090704;28;20192;-82
2022/12/23 11:37:26;;;;;;;11.73;8.40;;;;;;;9.60;51.17;96725.44;5090637;28;20640;-83
2022/12/23 11:39:54;;;;;;;13.77;8.17;;;;;;;9.50;51.07;96711.28;5089989;28;20188;-84
2022/12/23 11:42:27;;;;;;;9.53;6.20;;;;;;;9.67;50.89;96711.34;5071079;28;20232;-83
2022/12/23 11:44:58;;;;;;;9.43;6.07;;;;;;;9.60;51.16;96709.94;5088900;28;20227;-84
2022/12/23 11:47:37;;;;;;;8.63;5.87;;;;;;;9.69;50.59;96694.00;5089893;28;20242;-84
2022/12/23 11:50:38;;;;;;;11.73;8.40;;;;;;;9.96;51.02;96709.94;5068739;28;20289;-83
2022/12/23 11:53:22;;;;;;;16.30;8.97;;;;;;;9.97;50.19;96703.03;5029960;28;20261;-80
2022/12/23 11:56:06;;;;;;;12.40;8.20;;;;;;;9.90;50.19;96693.88;5070101;28;20586;-82
2022/12/23 11:58:58;;;;;;;14.60;8.93;;;;;;;9.99;49.57;96703.78;5067372;28;20590;-78
2022/12/23 12:01:25;;;;;;;9.10;6.47;;;;;;;9.78;49.10;96654.78;5047519;28;20206;-77
2022/12/23 12:04:06;;;;;;;8.00;6.87;;;;;;;10.02;49.25;96704.47;5070255;28;20254;-81
2022/12/23 12:06:34;;;;;;;10.73;7.63;;;;;;;9.91;49.13;96685.22;5088099;28;20178;-78
2022/12/23 12:09:05;;;;;;;14.00;7.77;;;;;;;9.98;49.06;96696.91;5088735;28;20197;-81
2022/12/23 12:11:43;;;;;;;13.03;7.87;;;;;;;9.81;49.25;96653.78;5087996;28;20216;-78
2022/12/23 12:14:20;;;;;;;15.10;8.73;;;;;;;10.24;48.77;96697.34;5089197;28;20233;-77